createdAt,value
2019-04-21T00:00:55.403Z,69.30
2019-04-21T00:03:27.096Z,68.80
2019-04-21T00:06:04.625Z,68.50
2019-04-21T00:08:39.248Z,68.00
2019-04-21T00:13:27.713Z,67.30
2019-04-21T00:15:48.838Z,66.90
2019-04-21T00:18:29.630Z,66.70
2019-04-21T00:20:59.729Z,67.00
2019-04-21T00:23:42.470Z,67.20
2019-04-21T00:26:03.964Z,67.70
2019-04-21T00:28:42.500Z,67.90
2019-04-21T00:31:12.380Z,68.00
2019-04-21T00:33:25.869Z,68.30
2019-04-21T00:35:54.969Z,68.50
2019-04-21T00:38:40.285Z,67.90
2019-04-21T00:41:05.507Z,68.20
2019-04-21T00:43:29.451Z,68.40
2019-04-21T00:45:56.782Z,68.20
2019-04-21T00:48:34.771Z,67.30
2019-04-21T00:51:23.066Z,67.30
2019-04-21T00:53:58.521Z,67.80
2019-04-21T00:56:21.730Z,67.30
2019-04-21T00:58:53.585Z,67.00
2019-04-21T01:01:15.764Z,67.00
2019-04-21T01:03:53.157Z,67.30
2019-04-21T01:06:16.386Z,67.70
2019-04-21T01:08:42.678Z,67.70
2019-04-21T01:11:16.503Z,68.00
2019-04-21T01:13:45.491Z,67.10
2019-04-21T01:16:14.107Z,66.80
2019-04-21T01:18:38.091Z,66.90
2019-04-21T01:20:45.711Z,66.80
2019-04-21T01:23:12.822Z,67.20
2019-04-21T01:25:50.611Z,67.20
2019-04-21T01:28:24.593Z,67.20
2019-04-21T01:30:57.310Z,67.40
2019-04-21T01:35:55.285Z,67.00
2019-04-21T01:38:31.604Z,67.40
2019-04-21T01:40:52.987Z,68.00
2019-04-21T01:43:18.611Z,68.70
2019-04-21T01:45:49.413Z,69.30
2019-04-21T01:48:12.502Z,69.50
2019-04-21T01:50:42.444Z,69.40
2019-04-21T01:53:24.884Z,69.60
2019-04-21T01:55:58.849Z,69.30
2019-04-21T01:58:18.290Z,69.30
2019-04-21T02:00:54.332Z,68.90
2019-04-21T02:03:43.332Z,69.00
2019-04-21T02:05:59.950Z,69.20
2019-04-21T02:08:21.499Z,68.90
2019-04-21T02:10:54.934Z,69.20
2019-04-21T02:13:16.867Z,69.00
2019-04-21T02:15:48.879Z,69.40
2019-04-21T02:18:17.136Z,69.40
2019-04-21T02:20:38.334Z,69.20
2019-04-21T02:25:47.101Z,69.80
2019-04-21T02:28:24.481Z,70.00
2019-04-21T02:31:02.972Z,70.10
2019-04-21T02:33:32.403Z,70.10
2019-04-21T02:36:02.792Z,70.30
2019-04-21T02:38:32.145Z,70.30
2019-04-21T02:43:18.640Z,70.30
2019-04-21T02:45:47.563Z,70.30
2019-04-21T02:50:54.985Z,70.60
2019-04-21T02:53:18.380Z,70.60
2019-04-21T02:55:44.520Z,70.70
2019-04-21T02:58:25.537Z,70.90
2019-04-21T03:01:12.490Z,70.70
2019-04-21T03:03:53.856Z,71.00
2019-04-21T03:06:25.123Z,71.10
2019-04-21T03:11:14.632Z,71.70
2019-04-21T03:13:47.114Z,71.90
2019-04-21T03:16:23.006Z,71.90
2019-04-21T03:23:46.737Z,72.10
2019-04-21T03:28:39.725Z,71.70
2019-04-21T03:36:38.220Z,73.00
2019-04-21T03:40:57.260Z,73.30
2019-04-21T03:43:26.819Z,73.70
2019-04-21T03:48:31.950Z,73.50
2019-04-21T03:50:59.466Z,73.30
2019-04-21T03:53:29.418Z,73.50
2019-04-21T03:55:53.049Z,73.00
2019-04-21T03:58:45.063Z,72.90
2019-04-21T04:01:05.761Z,73.00
2019-04-21T04:11:30.053Z,72.20
2019-04-21T04:14:03.433Z,73.20
2019-04-21T04:16:29.011Z,73.40
2019-04-21T04:23:46.576Z,73.60
2019-04-21T04:28:50.142Z,74.20
2019-04-21T04:31:15.339Z,74.50
2019-04-21T04:33:48.533Z,74.00
2019-04-21T04:38:41.636Z,73.90
2019-04-21T04:41:24.472Z,74.20
2019-04-21T04:43:52.559Z,74.30
2019-04-21T04:46:08.089Z,73.50
2019-04-21T04:48:47.517Z,73.10
2019-04-21T04:51:39.925Z,73.10
2019-04-21T05:01:14.302Z,71.60
2019-04-21T05:03:47.319Z,71.40
2019-04-21T05:09:02.858Z,70.30
2019-04-21T05:11:32.565Z,70.00
2019-04-21T05:13:58.053Z,69.50
2019-04-21T05:16:32.010Z,69.40
2019-04-21T05:18:55.881Z,69.20
2019-04-21T05:21:25.046Z,68.50
2019-04-21T05:23:40.035Z,67.80
2019-04-21T05:26:00.031Z,67.50
2019-04-21T05:28:24.781Z,68.00
2019-04-21T05:31:12.542Z,68.10
2019-04-21T05:33:52.988Z,67.40
2019-04-21T05:36:39.555Z,67.10
2019-04-21T05:39:10.781Z,66.80
2019-04-21T05:41:33.817Z,66.50
2019-04-21T05:44:09.883Z,66.60
2019-04-21T05:46:46.774Z,67.00
2019-04-21T05:49:10.767Z,66.90
2019-04-21T05:51:35.329Z,66.80
2019-04-21T05:54:14.987Z,66.70
2019-04-21T05:56:43.831Z,66.40
2019-04-21T05:59:10.790Z,65.90
2019-04-21T06:01:37.720Z,65.60
2019-04-21T06:04:16.862Z,66.90
2019-04-21T06:06:43.569Z,66.60
2019-04-21T06:09:04.311Z,65.80
2019-04-21T06:11:30.362Z,64.80
2019-04-21T06:14:04.418Z,65.80
2019-04-21T06:16:37.452Z,65.20
2019-04-21T06:18:59.025Z,65.60
2019-04-21T06:21:26.285Z,65.60
2019-04-21T06:24:12.769Z,65.60
2019-04-21T06:28:50.436Z,65.50
2019-04-21T06:31:33.808Z,64.90
2019-04-21T06:33:52.021Z,64.80
2019-04-21T06:39:04.969Z,63.80
2019-04-21T06:41:31.505Z,63.30
2019-04-21T06:44:12.915Z,64.30
2019-04-21T06:46:33.569Z,64.10
2019-04-21T06:51:27.339Z,62.90
2019-04-21T06:54:02.093Z,62.60
2019-04-21T06:56:27.142Z,61.90
2019-04-21T06:58:51.504Z,61.30
2019-04-21T07:01:20.817Z,60.50
2019-04-21T07:03:54.302Z,60.60
2019-04-21T07:06:13.124Z,59.80
2019-04-21T07:08:53.200Z,59.10
2019-04-21T07:11:08.335Z,58.40
2019-04-21T07:13:38.836Z,58.90
2019-04-21T07:16:15.649Z,58.30
2019-04-21T07:18:41.352Z,57.30
2019-04-21T07:21:09.069Z,57.80
2019-04-21T07:23:39.364Z,57.20
2019-04-21T07:26:02.776Z,57.40
2019-04-21T07:28:31.540Z,58.40
2019-04-21T07:31:03.857Z,57.60
2019-04-21T07:33:49.587Z,59.00
2019-04-21T07:35:56.890Z,58.50
2019-04-21T07:38:27.166Z,58.40
2019-04-21T07:40:48.496Z,56.80
2019-04-21T07:43:19.733Z,57.80
2019-04-21T07:45:44.688Z,58.40
2019-04-21T07:48:35.833Z,59.30
2019-04-21T07:51:04.314Z,59.00
2019-04-21T07:53:51.042Z,58.50
2019-04-21T07:55:59.645Z,58.50
2019-04-21T07:58:45.539Z,58.50
2019-04-21T08:01:12.258Z,58.40
2019-04-21T08:03:38.940Z,57.80
2019-04-21T08:06:19.019Z,58.10
2019-04-21T08:08:35.495Z,58.40
2019-04-21T08:11:07.440Z,58.40
2019-04-21T08:14:06.900Z,58.00
2019-04-21T08:16:07.371Z,58.70
2019-04-21T08:18:33.234Z,58.60
2019-04-21T08:21:01.303Z,58.10
2019-04-21T08:26:07.759Z,55.80
2019-04-21T08:28:27.588Z,54.60
2019-04-21T08:30:55.350Z,55.10
2019-04-21T08:38:20.847Z,52.80
2019-04-21T08:40:49.723Z,53.60
2019-04-21T08:43:24.318Z,53.50
2019-04-21T08:45:49.693Z,52.30
2019-04-21T08:48:17.082Z,50.50
2019-04-21T08:50:47.599Z,52.50
2019-04-21T08:53:19.778Z,49.90
2019-04-21T08:55:48.869Z,49.80
2019-04-21T08:58:22.648Z,48.90
2019-04-21T09:00:55.074Z,49.40
2019-04-21T09:03:36.036Z,49.80
2019-04-21T09:06:07.604Z,50.60
2019-04-21T09:08:33.119Z,49.60
2019-04-21T09:11:00.740Z,47.70
2019-04-21T09:13:32.470Z,48.00
2019-04-21T09:15:58.085Z,49.00
2019-04-21T09:18:24.115Z,48.00
2019-04-21T09:21:00.153Z,47.30
2019-04-21T09:23:28.448Z,46.90
2019-04-21T09:25:57.523Z,46.90
2019-04-21T09:28:22.661Z,48.00
2019-04-21T09:30:39.486Z,46.90
2019-04-21T09:33:05.262Z,47.90
2019-04-21T09:35:31.541Z,46.00
2019-04-21T09:38:07.824Z,45.30
2019-04-21T09:40:33.928Z,44.40
2019-04-21T09:43:01.968Z,44.00
2019-04-21T09:45:24.505Z,44.40
2019-04-21T09:48:00.827Z,44.10
2019-04-21T09:50:20.196Z,43.40
2019-04-21T09:52:54.709Z,43.30
2019-04-21T09:55:19.606Z,42.40
2019-04-21T09:57:51.579Z,42.60
2019-04-21T10:00:20.645Z,43.10
2019-04-21T10:02:54.583Z,42.00
2019-04-21T10:05:12.277Z,42.80
2019-04-21T10:07:42.370Z,43.40
2019-04-21T10:10:08.389Z,41.90
2019-04-21T10:12:37.477Z,42.30
2019-04-21T10:15:06.275Z,43.20
2019-04-21T10:17:41.813Z,42.00
2019-04-21T10:20:09.435Z,42.20
2019-04-21T10:22:37.239Z,42.30
2019-04-21T10:25:07.705Z,43.30
2019-04-21T10:27:34.841Z,43.60
2019-04-21T10:30:03.711Z,42.40
2019-04-21T10:32:30.639Z,41.60
2019-04-21T10:34:57.464Z,43.30
2019-04-21T10:37:35.420Z,42.40
2019-04-21T10:39:53.819Z,42.50
2019-04-21T10:42:21.433Z,42.60
2019-04-21T10:44:49.397Z,42.50
2019-04-21T10:47:16.582Z,42.20
2019-04-21T10:49:44.818Z,42.30
2019-04-21T10:52:17.115Z,42.90
2019-04-21T10:55:07.275Z,43.00
2019-04-21T10:57:14.555Z,42.80
2019-04-21T10:59:47.114Z,42.10
2019-04-21T11:02:17.417Z,42.50
2019-04-21T11:04:45.442Z,41.80
2019-04-21T11:07:19.615Z,41.80
2019-04-21T11:09:46.353Z,41.90
2019-04-21T11:12:13.548Z,42.10
2019-04-21T11:14:41.161Z,40.90
2019-04-21T11:17:08.088Z,41.70
2019-04-21T11:19:36.771Z,41.90
2019-04-21T11:22:04.963Z,41.90
2019-04-21T11:24:33.137Z,42.20
2019-04-21T11:27:01.762Z,42.70
2019-04-21T11:29:28.777Z,41.30
2019-04-21T11:31:56.807Z,40.60
2019-04-21T11:34:25.068Z,41.10
2019-04-21T11:36:52.288Z,40.70
2019-04-21T11:39:35.537Z,41.40
2019-04-21T11:41:53.946Z,41.80
2019-04-21T11:44:24.241Z,41.10
2019-04-21T11:46:49.759Z,42.80
2019-04-21T11:49:17.889Z,40.20
2019-04-21T11:51:46.933Z,40.20
2019-04-21T11:54:14.948Z,41.40
2019-04-21T11:56:43.106Z,41.80
2019-04-21T11:59:10.214Z,39.80
2019-04-21T12:01:37.104Z,40.20
2019-04-21T12:04:35.687Z,40.40
2019-04-21T12:07:02.660Z,38.80
2019-04-21T12:09:29.504Z,36.90
2019-04-21T12:11:57.012Z,37.70
2019-04-21T12:14:24.063Z,36.60
2019-04-21T12:16:50.962Z,36.70
2019-04-21T12:19:18.687Z,38.80
2019-04-21T12:21:57.967Z,41.40
2019-04-21T12:24:15.249Z,41.10
2019-04-21T12:26:42.250Z,38.20
2019-04-21T12:29:10.063Z,38.40
2019-04-21T12:31:57.302Z,39.70
2019-04-21T12:34:24.187Z,39.20
2019-04-21T12:36:51.023Z,37.80
2019-04-21T12:39:18.730Z,36.20
2019-04-21T12:41:46.671Z,36.00
2019-04-21T12:44:14.799Z,38.90
2019-04-21T12:46:41.782Z,39.30
2019-04-21T12:49:09.806Z,38.30
2019-04-21T12:51:37.691Z,39.40
2019-04-21T12:54:05.871Z,37.80
2019-04-21T12:56:33.677Z,38.10
2019-04-21T12:59:01.532Z,39.20
2019-04-21T13:01:28.700Z,38.80
2019-04-21T13:03:55.581Z,38.50
2019-04-21T13:06:23.425Z,38.20
2019-04-21T13:08:57.881Z,37.80
2019-04-21T13:11:19.238Z,38.20
2019-04-21T13:13:46.201Z,39.30
2019-04-21T13:16:13.644Z,39.30
2019-04-21T13:18:41.661Z,38.60
2019-04-21T13:21:09.887Z,38.50
2019-04-21T13:23:37.051Z,38.40
2019-04-21T13:26:04.942Z,38.10
2019-04-21T13:28:32.825Z,37.90
2019-04-21T13:31:00.194Z,37.20
2019-04-21T13:33:27.276Z,36.90
2019-04-21T13:35:55.185Z,36.90
2019-04-21T13:38:32.629Z,36.40
2019-04-21T13:41:15.785Z,38.50
2019-04-21T13:43:27.346Z,38.70
2019-04-21T13:45:54.301Z,39.40
2019-04-21T13:48:22.406Z,38.20
2019-04-21T13:50:49.320Z,37.80
2019-04-21T13:53:16.696Z,37.20
2019-04-21T13:55:44.627Z,38.50
2019-04-21T13:58:12.449Z,38.50
2019-04-21T14:00:39.999Z,38.00
2019-04-21T14:03:07.142Z,40.10
2019-04-21T14:05:34.015Z,41.10
2019-04-21T14:08:01.036Z,40.50
2019-04-21T14:10:29.246Z,39.90
2019-04-21T14:12:56.673Z,40.50
2019-04-21T14:15:24.188Z,41.00
2019-04-21T14:17:51.232Z,39.90
2019-04-21T14:20:19.494Z,38.60
2019-04-21T14:22:46.590Z,38.50
2019-04-21T14:25:15.375Z,38.50
2019-04-21T14:27:42.400Z,38.60
2019-04-21T14:30:10.455Z,38.30
2019-04-21T14:32:38.006Z,40.70
2019-04-21T14:35:06.863Z,41.20
2019-04-21T14:37:34.899Z,41.50
2019-04-21T14:40:07.355Z,40.00
2019-04-21T14:42:31.855Z,41.10
2019-04-21T14:44:58.914Z,40.40
2019-04-21T14:47:31.426Z,40.40
2019-04-21T14:50:18.161Z,40.90
2019-04-21T14:52:46.528Z,39.50
2019-04-21T14:55:16.554Z,39.90
2019-04-21T14:57:45.122Z,40.50
2019-04-21T15:00:15.479Z,40.10
2019-04-21T15:02:43.570Z,39.90
2019-04-21T15:05:11.769Z,40.10
2019-04-21T15:07:41.393Z,40.50
2019-04-21T15:10:17.994Z,40.60
2019-04-21T15:12:39.377Z,39.70
2019-04-21T15:15:07.765Z,40.10
2019-04-21T15:17:35.954Z,40.50
2019-04-21T15:20:10.424Z,42.10
2019-04-21T15:22:34.551Z,41.00
2019-04-21T15:25:02.786Z,41.00
2019-04-21T15:27:30.739Z,41.30
2019-04-21T15:29:58.503Z,41.90
2019-04-21T15:32:26.526Z,40.80
2019-04-21T15:34:54.040Z,40.90
2019-04-21T15:37:22.027Z,40.40
2019-04-21T15:39:49.008Z,40.10
2019-04-21T15:42:16.720Z,41.40
2019-04-21T15:44:44.937Z,40.80
2019-04-21T15:47:11.886Z,40.50
2019-04-21T15:50:00.909Z,40.50
2019-04-21T15:52:25.236Z,40.70
2019-04-21T15:54:54.635Z,39.80
2019-04-21T15:57:30.030Z,40.50
2019-04-21T16:00:00.342Z,40.70
2019-04-21T16:02:37.209Z,39.90
2019-04-21T16:05:06.700Z,40.40
2019-04-21T16:07:34.036Z,40.90
2019-04-21T16:10:02.034Z,41.10
2019-04-21T16:12:29.733Z,41.60
2019-04-21T16:14:56.658Z,42.40
2019-04-21T16:17:23.750Z,42.10
2019-04-21T16:19:52.078Z,42.30
2019-04-21T16:22:19.127Z,42.00
2019-04-21T16:24:47.838Z,41.90
2019-04-21T16:27:15.246Z,41.50
2019-04-21T16:29:43.631Z,41.60
2019-04-21T16:32:11.520Z,42.00
2019-04-21T16:34:47.144Z,42.00
2019-04-21T16:37:09.617Z,42.00
2019-04-21T16:39:37.754Z,41.80
2019-04-21T16:42:06.285Z,41.60
2019-04-21T16:44:34.679Z,41.20
2019-04-21T16:47:01.633Z,41.90
2019-04-21T16:49:29.586Z,42.20
2019-04-21T16:52:02.330Z,42.10
2019-04-21T16:54:29.461Z,41.80
2019-04-21T16:56:59.731Z,42.60
2019-04-21T16:59:28.768Z,42.00
2019-04-21T17:01:56.549Z,42.00
2019-04-21T17:04:24.475Z,43.00
2019-04-21T17:06:51.470Z,42.20
2019-04-21T17:09:18.824Z,42.10
2019-04-21T17:11:47.018Z,42.20
2019-04-21T17:14:31.695Z,42.80
2019-04-21T17:17:09.939Z,43.50
2019-04-21T17:19:25.365Z,44.20
2019-04-21T17:21:45.716Z,44.30
2019-04-21T17:24:12.853Z,44.30
2019-04-21T17:26:43.968Z,44.80
2019-04-21T17:29:10.552Z,44.90
2019-04-21T17:31:37.576Z,45.20
2019-04-21T17:34:11.664Z,45.60
2019-04-21T17:36:33.314Z,45.30
2019-04-21T17:39:01.926Z,45.20
2019-04-21T17:41:37.664Z,45.50
2019-04-21T17:43:58.311Z,45.50
2019-04-21T17:46:36.647Z,46.00
2019-04-21T17:48:54.750Z,45.70
2019-04-21T17:51:27.650Z,45.70
2019-04-21T17:54:13.690Z,45.40
2019-04-21T17:56:59.856Z,46.10
2019-04-21T17:59:28.099Z,45.60
2019-04-21T18:01:54.707Z,45.90
2019-04-21T18:04:18.202Z,46.20
2019-04-21T18:07:10.235Z,46.30
2019-04-21T18:09:49.830Z,46.60
2019-04-21T18:12:10.833Z,47.20
2019-04-21T18:14:22.183Z,47.70
2019-04-21T18:16:51.623Z,47.50
2019-04-21T18:19:19.350Z,47.30
2019-04-21T18:21:54.115Z,46.80
2019-04-21T18:24:22.588Z,46.20
2019-04-21T18:26:55.406Z,46.70
2019-04-21T18:29:17.934Z,47.20
2019-04-21T18:31:48.672Z,48.00
2019-04-21T18:34:18.214Z,47.70
2019-04-21T18:36:50.281Z,47.50
2019-04-21T18:39:34.270Z,48.40
2019-04-21T18:42:18.944Z,48.60
2019-04-21T18:45:10.613Z,49.10
2019-04-21T18:47:25.651Z,48.80
2019-04-21T18:49:44.737Z,48.90
2019-04-21T18:52:22.462Z,49.10
2019-04-21T18:55:00.414Z,50.10
2019-04-21T18:57:22.851Z,49.90
2019-04-21T18:59:45.133Z,50.40
2019-04-21T19:02:11.268Z,50.90
2019-04-21T19:04:40.546Z,51.10
2019-04-21T19:07:21.080Z,51.00
2019-04-21T19:10:09.827Z,51.00
2019-04-21T19:12:35.637Z,50.80
2019-04-21T19:14:50.634Z,51.00
2019-04-21T19:17:51.077Z,50.50
2019-04-21T19:22:15.278Z,50.80
2019-04-21T19:24:49.027Z,51.30
2019-04-21T19:27:20.884Z,50.90
2019-04-21T19:29:49.999Z,51.30
2019-04-21T19:32:13.837Z,51.20
2019-04-21T19:34:26.763Z,51.50
2019-04-21T19:36:57.583Z,51.80
2019-04-21T19:39:39.064Z,52.00
2019-04-21T19:42:00.268Z,52.10
2019-04-21T19:44:37.985Z,52.00
2019-04-21T19:47:03.883Z,52.20
2019-04-21T19:49:39.935Z,52.10
2019-04-21T19:51:54.030Z,52.70
2019-04-21T19:54:23.028Z,52.60
2019-04-21T19:56:42.996Z,53.00
2019-04-21T19:59:11.822Z,53.30
2019-04-21T20:01:39.360Z,53.50
2019-04-21T20:04:06.398Z,54.10
2019-04-21T20:06:47.525Z,54.40
2019-04-21T20:09:17.843Z,54.10
2019-04-21T20:11:48.754Z,54.10
2019-04-21T20:16:46.653Z,54.70
2019-04-21T20:19:02.349Z,55.20
2019-04-21T20:21:25.257Z,55.00
2019-04-21T20:23:57.450Z,55.00
2019-04-21T20:26:24.605Z,55.60
2019-04-21T20:28:59.273Z,55.70
2019-04-21T20:31:37.363Z,56.00
2019-04-21T20:34:06.287Z,56.10
2019-04-21T20:36:33.206Z,56.60
2019-04-21T20:38:50.147Z,56.90
2019-04-21T20:41:27.322Z,57.70
2019-04-21T20:44:02.221Z,58.00
2019-04-21T20:46:25.523Z,58.50
2019-04-21T20:48:50.938Z,58.70
2019-04-21T20:51:23.485Z,59.20
2019-04-21T20:53:50.911Z,59.10
2019-04-21T20:56:13.011Z,59.20
2019-04-21T20:58:53.739Z,59.30
2019-04-21T21:01:33.265Z,59.80
2019-04-21T21:03:57.842Z,59.60
2019-04-21T21:06:14.420Z,59.70
2019-04-21T21:08:45.075Z,59.60
2019-04-21T21:11:08.049Z,59.90
2019-04-21T21:13:44.377Z,59.70
2019-04-21T21:18:56.468Z,59.60
2019-04-21T21:21:04.559Z,59.60
2019-04-21T21:23:40.573Z,59.30
2019-04-21T21:26:09.464Z,59.20
2019-04-21T21:28:32.650Z,59.20
2019-04-21T21:31:04.177Z,59.20
2019-04-21T21:33:25.265Z,59.70
2019-04-21T21:35:56.615Z,59.40
2019-04-21T21:38:30.948Z,59.20
2019-04-21T21:40:53.024Z,59.20
2019-04-21T21:43:16.607Z,59.90
2019-04-21T21:45:42.197Z,60.20
2019-04-21T21:48:21.959Z,59.90
2019-04-21T21:50:46.990Z,60.20
2019-04-21T21:53:13.183Z,60.50
2019-04-21T21:55:34.025Z,60.70
2019-04-21T21:58:02.435Z,61.20
2019-04-21T22:00:30.343Z,61.80
2019-04-21T22:02:59.188Z,62.30
2019-04-21T22:05:29.264Z,62.00
2019-04-21T22:07:54.430Z,62.10
2019-04-21T22:10:21.241Z,62.80
2019-04-21T22:12:56.815Z,63.30
2019-04-21T22:15:22.482Z,63.70
2019-04-21T22:18:07.387Z,63.80
2019-04-21T22:20:33.021Z,64.20
2019-04-21T22:22:53.418Z,63.50
2019-04-21T22:25:20.675Z,63.60
2019-04-21T22:27:41.477Z,63.40
2019-04-21T22:30:12.496Z,63.10
2019-04-21T22:32:38.665Z,62.50
2019-04-21T22:35:10.785Z,62.40
2019-04-21T22:37:47.442Z,63.20
2019-04-21T22:40:16.653Z,62.70
2019-04-21T22:42:45.179Z,62.90
2019-04-21T22:45:05.269Z,63.20
2019-04-21T22:47:35.792Z,63.60
2019-04-21T22:50:00.748Z,64.40
2019-04-21T22:52:29.949Z,65.20
2019-04-21T22:54:56.201Z,65.40
2019-04-21T22:57:26.599Z,65.60
2019-04-21T22:59:59.363Z,65.70
2019-04-21T23:02:24.723Z,65.60
2019-04-21T23:04:53.062Z,65.10
2019-04-21T23:07:20.763Z,65.30
2019-04-21T23:09:47.502Z,65.30
2019-04-21T23:12:21.812Z,65.90
2019-04-21T23:14:53.412Z,65.80
2019-04-21T23:17:38.953Z,66.40
2019-04-21T23:20:03.913Z,66.30
2019-04-21T23:22:30.501Z,66.10
2019-04-21T23:25:00.485Z,66.30
2019-04-21T23:27:17.245Z,66.30
2019-04-21T23:30:17.812Z,66.10
2019-04-21T23:32:20.954Z,66.20
2019-04-21T23:34:36.854Z,66.50
2019-04-21T23:37:08.357Z,66.50
2019-04-21T23:39:32.837Z,66.30
2019-04-21T23:42:00.936Z,66.10
2019-04-21T23:44:28.047Z,65.50
2019-04-21T23:47:00.789Z,65.50
2019-04-21T23:49:38.318Z,65.30
2019-04-21T23:52:00.798Z,65.30
2019-04-21T23:54:23.125Z,65.40
2019-04-21T23:56:51.447Z,65.40
2019-04-21T23:59:18.552Z,64.80
